Latest Weather Observations for Mount Magnet Airport

IDW60801

Issued at 2:33 pm WST Saturday 3 December 2016 (issued every 30 minutes, with the page automatically refreshed every 10 minutes)

About weather observations | Map of weather stations | Latest weather observations for WA | Other Formats
Station Details ID: 007600 Name: MOUNT MAGNET AERO Lat: -28.12 Lon: 117.84 Height: 407.0 m
Data from the previous 72 hours. | See also: Recent months at Mount Magnet Airport
Date/Time
WST
Temp
°C
App
Temp
°C
Dew
Point
°C
Rel
Hum
%
Delta-T
°C
Wind Press
QNH
hPa
Press
MSL
hPa
Rain since
9am
mm
Dir  Spd
km/h
Gust
km/h
Spd
kts
Gust
kts
03/02:30pm 33.1 26.4 -1.3 11 16.8 W 24 41 13 22 1006.8 1003.9 0.0
03/02:00pm 32.6 26.5 0.6 13 16.1 WSW 22 37 12 20 1006.9 1004.0 0.0
03/01:30pm 32.6 25.2 1.7 14 15.7 W 30 41 16 22 1007.0 1004.1 0.0
03/01:00pm 32.2 25.8 3.2 16 15.1 WNW 26 37 14 20 1007.3 1004.4 0.0
03/12:30pm 32.2 26.2 3.2 16 15.1 WSW 24 33 13 18 1007.4 1004.5 0.0
03/12:00pm 31.3 25.7 3.4 17 14.5 WSW 22 33 12 18 1007.5 1004.6 0.0
03/11:30am 30.9 25.1 2.2 16 14.6 SW 22 32 12 17 1007.6 1004.7 0.0
03/11:00am 30.3 24.4 1.7 16 14.4 WSW 22 32 12 17 1007.7 1004.8 0.0
03/10:30am 30.3 24.4 1.7 16 14.4 SW 22 32 12 17 1007.8 1005.0 0.0
03/10:00am 27.7 22.3 2.7 20 12.6 SW 20 28 11 15 1007.9 1005.1 0.0
03/09:30am 26.9 21.5 2.7 21 12.1 SW 20 30 11 16 1008.3 1005.5 0.0
03/09:00am 25.3 19.6 2.7 23 11.2 WSW 22 28 12 15 1008.3 1005.5 0.0
03/08:30am 24.5 19.0 2.0 23 10.9 WSW 20 30 11 16 1008.3 1005.5 0.0
03/08:00am 23.5 18.4 2.9 26 10.1 SW 19 24 10 13 1008.3 1005.5 0.0
03/07:30am 23.2 18.0 2.7 26 10.0 SW 19 26 10 14 1008.1 1005.3 0.0
03/07:00am 22.4 17.3 3.0 28 9.5 SW 19 28 10 15 1008.0 1005.2 0.0
03/06:30am 20.8 15.6 3.5 32 8.4 SW 20 26 11 14 1007.9 1005.1 0.0
03/06:00am 20.2 16.7 5.4 38 7.5 WSW 13 15 7 8 1007.5 1004.6 0.0
03/05:30am 19.8 15.6 5.8 40 7.1 SSW 17 22 9 12 1007.4 1004.5 0.0
03/05:00am 19.9 15.7 5.9 40 7.1 SW 17 24 9 13 1007.1 1004.2 0.0
03/04:30am 20.2 16.5 6.2 40 7.1 SW 15 19 8 10 1007.1 1004.2 0.0
03/04:00am 20.7 16.9 5.9 38 7.6 SW 15 19 8 10 1006.9 1004.0 0.0
03/03:30am 21.1 17.7 5.9 37 7.8 SW 13 19 7 10 1006.8 1003.9 0.0
03/03:00am 21.7 18.0 6.4 37 7.9 SW 15 19 8 10 1006.8 1003.9 0.0
03/02:30am 22.3 19.1 6.9 37 8.1 SW 13 20 7 11 1006.8 1003.9 0.0
03/02:00am 23.0 18.5 7.1 36 8.4 SW 20 28 11 15 1006.8 1003.9 0.0
03/01:30am 23.5 19.6 7.2 35 8.6 SSW 17 20 9 11 1007.1 1004.2 0.0
03/01:00am 24.1 19.3 7.3 34 9.0 SSW 22 32 12 17 1007.2 1004.3 0.0
03/12:30am 24.7 20.4 7.8 34 9.1 SW 20 30 11 16 1007.5 1004.6 0.0
03/12:00am 25.4 20.4 8.0 33 9.5 SW 24 32 13 17 1007.7 1004.8 0.0
 
Date/Time
WST
Temp
°C
App
Temp
°C
Dew
Point
°C
Rel
Hum
%
Delta-T
°C
Wind Press
QNH
hPa
Press
MSL
hPa
Rain since
9am
mm
Dir  Spd
km/h
Gust
km/h
Spd
kts
Gust
kts
02/11:30pm 26.3 19.6 8.3 32 9.9 SSW 33 44 18 24 1007.6 1004.7 0.0
02/11:00pm 27.3 22.2 7.7 29 10.7 SW 24 37 13 20 1007.7 1004.8 0.0
02/10:30pm 28.2 21.3 7.4 27 11.4 SW 33 48 18 26 1007.6 1004.7 0.0
02/10:09pm 29.2 22.8 5.3 22 12.7 SW 28 46 15 25 1007.6 1004.7 0.0
02/10:00pm 29.4 22.4 4.1 20 13.2 WSW 30 41 16 22 1007.5 1004.6 0.0
02/09:47pm 29.8 24.2 1.3 16 14.2 WSW 20 37 11 20 1007.3 1004.4 0.0
02/09:30pm 30.1 25.7 -2.4 12 15.2 WSW 11 13 6 7 1007.0 1004.1 0.0
02/09:00pm 31.3 26.9 -2.6 11 16.0 WSW 11 13 6 7 1006.9 1004.0 0.0
02/08:30pm 32.1 27.2 -3.3 10 16.5 SW 13 15 7 8 1006.7 1003.8 0.0
02/08:00pm 32.8 28.0 -2.8 10 16.9 SW 13 17 7 9 1006.7 1003.8 0.0
02/07:30pm 33.7 28.4 -3.5 9 17.5 SW 15 20 8 11 1006.5 1003.6 0.0
02/07:00pm 34.5 27.9 -2.9 9 17.9 SW 22 30 12 16 1006.2 1003.3 0.0
02/06:30pm 35.5 29.2 -3.8 8 18.7 WSW 20 30 11 16 1005.8 1003.0 0.0
02/06:00pm 36.0 29.4 -3.4 8 18.9 SW 22 32 12 17 1005.6 1002.8 0.0
02/05:30pm 36.5 29.0 -1.4 9 18.8 WSW 28 39 15 21 1005.3 1002.4 0.0
02/05:26pm 36.7 30.0 -1.3 9 18.9 WSW 24 39 13 21 1005.1 1002.2 0.0
02/05:00pm 36.6 32.1 -3.0 8 19.2 W 11 24 6 13 1005.1 1002.2 0.0
02/04:30pm 37.0 31.0 -2.7 8 19.4 W 19 30 10 16 1005.2 1002.3 0.0
02/04:00pm 37.2 31.3 -0.9 9 19.2 W 20 33 11 18 1005.4 1002.5 0.0
02/03:30pm 37.1 32.1 -1.0 9 19.1 WSW 15 26 8 14 1005.6 1002.8 0.0
02/03:00pm 36.9 33.8 1.6 11 18.5 NW 7 20 4 11 1006.0 1003.2 0.0
02/02:30pm 36.5 30.5 1.3 11 18.2 WSW 22 35 12 19 1006.4 1003.5 0.0
02/02:00pm 35.4 31.0 2.8 13 17.2 NW 15 32 8 17 1006.8 1003.9 0.0
02/01:30pm 35.8 30.7 3.1 13 17.4 W 19 24 10 13 1007.2 1004.3 0.0
02/01:00pm 34.4 29.9 4.0 15 16.3 N 17 20 9 11 1007.6 1004.7 0.0
02/12:30pm 35.2 30.6 3.7 14 16.8 W 17 28 9 15 1008.0 1005.2 0.0
02/12:00pm 34.1 29.1 3.8 15 16.1 W 19 24 10 13 1008.4 1005.6 0.0
02/11:30am 33.4 31.1 5.9 18 15.1 NW 7 17 4 9 1008.9 1006.0 0.0
02/11:00am 32.6 29.9 7.4 21 14.1 ENE 11 20 6 11 1009.4 1006.5 0.0
02/10:30am 31.6 28.3 8.0 23 13.2 ENE 15 26 8 14 1009.8 1006.9 0.0
02/10:00am 31.0 28.2 8.7 25 12.6 ENE 13 20 7 11 1010.0 1007.1 0.0
02/09:30am 29.5 25.6 8.5 27 11.8 ENE 19 30 10 16 1010.4 1007.6 0.0
02/09:00am 28.2 24.8 9.0 30 10.8 ENE 17 28 9 15 1010.6 1007.8 0.0
02/08:30am 27.3 23.5 9.2 32 10.1 ENE 19 28 10 15 1010.8 1008.0 0.0
02/08:00am 26.1 22.3 9.0 34 9.5 E 19 26 10 14 1011.0 1008.2 0.0
02/07:30am 25.2 21.4 9.1 36 8.9 ESE 19 26 10 14 1011.2 1008.4 0.0
02/07:00am 24.0 20.1 8.8 38 8.3 ESE 19 24 10 13 1011.2 1008.4 0.0
02/06:30am 22.5 18.8 7.9 39 7.8 ESE 17 24 9 13 1010.8 1008.0 0.0
02/06:00am 21.3 18.5 6.8 39 7.5 SSE 11 13 6 7 1010.6 1007.8 0.0
02/05:30am 20.6 17.3 6.5 40 7.3 S 13 17 7 9 1010.4 1007.6 0.0
02/05:00am 20.5 16.9 6.8 41 7.1 S 15 19 8 10 1010.1 1007.3 0.0
02/04:30am 20.9 17.7 6.8 40 7.3 SSW 13 15 7 8 1009.9 1007.0 0.0
02/04:00am 21.5 18.2 6.6 38 7.7 S 13 17 7 9 1009.8 1006.9 0.0
02/03:30am 22.0 18.8 6.7 37 8.0 S 13 19 7 10 1009.5 1006.6 0.0
02/03:00am 22.7 19.1 6.9 36 8.3 S 15 19 8 10 1009.5 1006.6 0.0
02/02:30am 23.2 19.2 6.5 34 8.7 S 17 20 9 11 1009.6 1006.7 0.0
02/02:00am 23.7 19.7 6.5 33 9.0 S 17 19 9 10 1009.6 1006.7 0.0
02/01:30am 24.2 20.1 6.0 31 9.5 S 17 24 9 13 1009.5 1006.6 0.0
02/01:00am 24.7 20.5 5.5 29 10.0 S 17 20 9 11 1009.6 1006.7 0.0
02/12:30am 25.3 20.6 5.0 27 10.5 S 19 26 10 14 1009.7 1006.8 0.0
02/12:00am 25.9 20.9 4.4 25 11.0 S 20 28 11 15 1009.8 1006.9 0.0
 
Date/Time
WST
Temp
°C
App
Temp
°C
Dew
Point
°C
Rel
Hum
%
Delta-T
°C
Wind Press
QNH
hPa
Press
MSL
hPa
Rain since
9am
mm
Dir  Spd
km/h
Gust
km/h
Spd
kts
Gust
kts
01/11:30pm 26.5 20.7 4.3 24 11.4 S 24 30 13 16 1009.8 1006.9 0.0
01/11:00pm 27.0 21.1 4.1 23 11.8 S 24 33 13 18 1009.9 1007.0 0.0
01/10:30pm 27.5 21.6 3.9 22 12.1 S 24 30 13 16 1009.9 1007.0 0.0
01/10:00pm 28.0 22.1 3.7 21 12.5 S 24 33 13 18 1009.8 1006.9 0.0
01/09:30pm 28.7 22.7 3.5 20 12.9 S 24 33 13 18 1009.8 1006.9 0.0
01/09:00pm 29.5 23.5 3.5 19 13.4 SSW 24 32 13 17 1009.7 1006.8 0.0
01/08:30pm 30.1 24.3 2.4 17 14.1 SSW 22 32 12 17 1009.6 1006.7 0.0
01/08:00pm 30.8 25.2 0.2 14 15.1 SSW 19 30 10 16 1009.3 1006.4 0.0
01/07:30pm 31.5 26.3 -0.2 13 15.5 SW 17 20 9 11 1009.1 1006.2 0.0
01/07:00pm 32.1 26.2 -0.9 12 16.1 SW 20 24 11 13 1008.9 1006.0 0.0
01/06:30pm 32.9 27.3 -0.2 12 16.4 SSW 19 26 10 14 1008.5 1005.7 0.0
01/06:00pm 33.1 27.9 -0.1 12 16.5 SSW 17 24 9 13 1008.2 1005.4 0.0
01/05:30pm 33.2 28.0 0.0 12 16.5 SW 17 24 9 13 1008.1 1005.3 0.0
01/05:00pm 34.3 28.8 0.8 12 17.0 SW 19 26 10 14 1008.0 1005.2 0.0
01/04:30pm 33.7 28.5 0.4 12 16.7 WSW 17 24 9 13 1008.1 1005.3 0.0
01/04:00pm 33.5 29.1 0.2 12 16.7 SW 13 28 7 15 1008.2 1005.4 0.0
01/03:30pm 33.4 28.8 1.3 13 16.3 SSW 15 30 8 16 1008.6 1005.8 0.0
01/03:00pm 33.5 28.1 1.3 13 16.4 SSW 19 32 10 17 1009.0 1006.1 0.0
01/02:30pm 33.5 27.9 1.3 13 16.4 SW 20 35 11 19 1009.4 1006.5 0.0
01/02:00pm 33.7 29.5 1.5 13 16.5 SSE 13 28 7 15 1009.5 1006.6 0.0
01/01:30pm 32.9 27.3 0.9 13 16.1 WSW 20 28 11 15 1010.0 1007.1 0.0
01/01:00pm 32.5 28.1 2.5 15 15.5 WNW 15 30 8 16 1010.2 1007.4 0.0
01/12:30pm 31.6 27.6 2.7 16 14.9 WNW 13 20 7 11 1010.6 1007.8 0.0
01/12:00pm 31.2 27.8 4.1 18 14.3 ENE 11 20 6 11 1011.0 1008.2 0.0
01/11:30am 30.4 27.0 4.2 19 13.7 SE 11 20 6 11 1011.4 1008.5 0.0
01/11:00am 30.0 26.5 5.3 21 13.2 SE 13 24 7 13 1011.7 1008.8 0.0
01/10:30am 29.3 26.2 5.4 22 12.7 S 11 22 6 12 1012.1 1009.2 0.0
01/10:00am 27.6 24.2 5.8 25 11.6 SSE 13 19 7 10 1012.3 1009.5 0.0
01/09:30am 26.5 23.1 6.0 27 10.8 S 13 24 7 13 1012.4 1009.6 0.0
01/09:00am 25.1 22.2 6.3 30 9.9 SSE 11 20 6 11 1012.8 1010.0 0.0
01/08:30am 24.2 20.3 6.9 33 9.2 S 17 22 9 12 1012.9 1010.1 0.0
01/08:00am 22.7 18.4 6.9 36 8.3 S 19 24 10 13 1012.9 1010.1 0.0
01/07:30am 21.7 17.2 6.8 38 7.8 S 20 28 11 15 1012.8 1010.5 0.0
01/07:00am 20.5 16.1 7.5 43 6.8 SSW 20 26 11 14 1012.8 1010.5 0.0
01/06:30am 19.7 15.4 7.8 46 6.2 SSW 20 26 11 14 1012.7 1010.4 0.0
01/06:00am 19.2 15.0 7.3 46 6.2 SSW 19 22 10 12 1012.6 1010.3 0.0
01/05:30am 18.9 15.7 7.0 46 6.1 SSW 13 17 7 9 1012.4 1010.1 0.0
01/05:00am 19.1 15.2 7.2 46 6.2 SSW 17 22 9 12 1012.2 1009.8 0.0
01/04:30am 19.6 15.0 6.7 43 6.6 SSW 20 30 11 16 1012.0 1009.6 0.0
01/04:00am 20.1 15.5 5.7 39 7.3 SSW 19 26 10 14 1011.9 1009.5 0.0
01/03:30am 20.5 15.6 5.3 37 7.6 SSW 20 26 11 14 1011.6 1009.2 0.0
01/03:00am 21.2 15.8 4.3 33 8.4 SSW 22 28 12 15 1011.6 1009.2 0.0
01/02:30am 22.0 15.5 4.6 32 8.7 SSW 28 33 15 18 1011.6 1009.2 0.0
01/02:00am 22.7 17.4 5.2 32 8.9 SSW 22 32 12 17 1011.5 1009.1 0.0
01/01:30am 23.5 17.5 5.4 31 9.3 SSW 26 35 14 19 1011.5 1009.1 0.0
01/01:00am 24.1 17.0 5.5 30 9.6 SSW 32 37 17 20 1011.4 1009.0 0.0
01/12:30am 24.8 19.3 6.1 30 9.8 SSW 24 33 13 18 1011.2 1008.9 0.0
01/12:00am 25.6 19.8 6.3 29 10.2 SSW 26 43 14 23 1011.2 1008.9 0.0
 
Date/Time
WST
Temp
°C
App
Temp
°C
Dew
Point
°C
Rel
Hum
%
Delta-T
°C
Wind Press
QNH
hPa
Press
MSL
hPa
Rain since
9am
mm
Dir  Spd
km/h
Gust
km/h
Spd
kts
Gust
kts
30/11:30pm 26.6 20.0 6.1 27 10.9 SSW 30 39 16 21 1010.9 1008.6 0.0
30/11:13pm 27.3 21.1 6.1 26 11.3 SSW 28 44 15 24 1010.9 1008.6 0.0
30/11:00pm 28.7 23.7 3.5 20 12.9 SSW 19 24 10 13 1010.8 1008.5 0.0
30/10:30pm 29.2 24.5 3.2 19 13.3 SSW 17 20 9 11 1010.7 1008.4 0.0
30/10:00pm 29.8 24.9 2.1 17 14.0 SSW 17 22 9 12 1010.6 1008.3 0.0
30/09:30pm 30.4 25.5 1.8 16 14.4 SSW 17 20 9 11 1010.4 1008.1 0.0
30/09:00pm 30.6 26.7 1.0 15 14.7 SSW 11 15 6 8 1010.2 1007.9 0.0
30/08:30pm 31.7 27.4 1.0 14 15.4 SSW 13 17 7 9 1009.9 1007.5 0.0
30/08:00pm 32.5 27.4 0.6 13 16.0 SSW 17 24 9 13 1009.6 1007.2 0.0
30/07:30pm 33.2 28.0 0.0 12 16.5 SSW 17 20 9 11 1009.3 1006.9 0.0
30/07:00pm 34.0 28.3 -0.6 11 17.2 SW 19 26 10 14 1008.9 1006.5 0.0
30/06:30pm 34.7 28.3 -1.4 10 17.7 WSW 22 32 12 17 1008.6 1006.3 0.0
30/06:00pm 35.6 29.3 -0.7 10 18.2 W 22 32 12 17 1008.3 1006.0 0.0
30/05:30pm 35.8 29.4 -2.0 9 18.5 W 22 33 12 18 1008.1 1005.8 0.0
30/05:00pm 36.1 28.7 -3.3 8 19.0 WSW 26 35 14 19 1008.0 1005.7 0.0
30/04:30pm 36.4 29.8 -3.1 8 19.1 W 22 30 12 16 1008.0 1005.7 0.0
30/04:00pm 36.1 30.1 -3.3 8 19.0 WSW 19 30 10 16 1008.1 1005.8 0.0
30/03:30pm 36.3 29.7 -3.2 8 19.0 W 22 33 12 18 1008.3 1006.0 0.0
30/03:00pm 36.4 29.4 -3.1 8 19.1 SW 24 33 13 18 1008.5 1006.2 0.0

Other Formats:

Comma delimited format used in spreadsheet applications
http://www.bom.gov.au/fwo/IDW60801/IDW60801.94429.axf

JavaScript Object Notation format (JSON) in row-major order
http://www.bom.gov.au/fwo/IDW60801/IDW60801.94429.json